createdAt,value
2023-08-18T00:01:44.394Z,17.03
2023-08-18T00:04:31.247Z,17.73
2023-08-18T00:07:18.225Z,16.43
2023-08-18T00:10:05.478Z,17.80
2023-08-18T00:12:52.312Z,22.00
2023-08-18T00:15:38.901Z,16.93
2023-08-18T00:18:26.839Z,18.37
2023-08-18T00:21:14.183Z,23.43
2023-08-18T00:24:00.847Z,20.27
2023-08-18T00:26:47.535Z,20.80
2023-08-18T00:29:34.118Z,22.23
2023-08-18T00:32:20.754Z,18.50
2023-08-18T00:35:09.579Z,20.30
2023-08-18T00:37:56.264Z,32.93
2023-08-18T00:40:42.818Z,28.37
2023-08-18T00:43:29.479Z,25.23
2023-08-18T00:46:17.629Z,18.70
2023-08-18T00:49:06.994Z,22.90
2023-08-18T00:51:55.049Z,23.23
2023-08-18T00:54:44.014Z,25.13
2023-08-18T00:57:34.252Z,24.83
2023-08-18T01:00:24.384Z,28.50
2023-08-18T01:03:11.971Z,28.87
2023-08-18T01:06:00.032Z,28.57
2023-08-18T01:08:48.480Z,30.50
2023-08-18T01:11:39.668Z,24.30
2023-08-18T01:14:34.960Z,24.97
2023-08-18T01:17:28.770Z,26.93
2023-08-18T01:20:16.232Z,24.67
2023-08-18T01:23:05.811Z,25.70
2023-08-18T01:25:52.651Z,24.67
2023-08-18T01:28:39.488Z,21.67
2023-08-18T01:31:33.372Z,24.60
2023-08-18T01:34:22.094Z,22.07
2023-08-18T01:37:08.801Z,25.70
2023-08-18T01:39:59.171Z,23.70
2023-08-18T01:42:47.291Z,18.50
2023-08-18T01:45:36.743Z,22.10
2023-08-18T01:48:23.755Z,19.27
2023-08-18T01:51:10.311Z,17.87
2023-08-18T01:53:56.837Z,32.97
2023-08-18T01:56:44.865Z,20.33
2023-08-18T01:59:31.870Z,19.70
2023-08-18T02:02:18.748Z,26.40
2023-08-18T02:05:06.061Z,21.67
2023-08-18T02:07:52.967Z,21.87
2023-08-18T02:10:39.488Z,23.70
2023-08-18T02:13:27.439Z,21.13
2023-08-18T02:16:14.855Z,21.20
2023-08-18T02:19:01.453Z,22.47
2023-08-18T02:21:48.902Z,18.87
2023-08-18T02:24:35.646Z,16.23
2023-08-18T02:27:22.190Z,17.67
2023-08-18T02:30:11.193Z,14.57
2023-08-18T02:32:58.077Z,14.30
2023-08-18T02:35:46.693Z,18.00
2023-08-18T02:38:36.823Z,14.23
2023-08-18T02:41:25.126Z,15.37
2023-08-18T02:44:11.645Z,11.07
2023-08-18T02:46:59.848Z,14.37
2023-08-18T02:49:48.687Z,12.43
2023-08-18T02:52:35.542Z,15.03
2023-08-18T02:55:22.294Z,11.63
2023-08-18T02:58:08.933Z,13.47
2023-08-18T03:00:55.594Z,11.10
2023-08-18T03:03:43.654Z,16.53
2023-08-18T03:06:30.606Z,14.20
2023-08-18T03:09:17.976Z,13.20
2023-08-18T03:12:05.011Z,15.33
2023-08-18T03:14:53.267Z,15.87
2023-08-18T03:17:40.257Z,11.07
2023-08-18T03:20:28.057Z,12.13
2023-08-18T03:23:16.262Z,11.90
2023-08-18T03:26:04.241Z,12.87
2023-08-18T03:28:53.715Z,8.83
2023-08-18T03:31:40.574Z,14.93
2023-08-18T03:34:27.168Z,11.27
2023-08-18T03:37:15.211Z,12.30
2023-08-18T03:40:04.423Z,11.03
2023-08-18T03:42:51.838Z,9.57
2023-08-18T03:45:39.901Z,9.43
2023-08-18T03:48:26.413Z,11.83
2023-08-18T03:51:13.086Z,8.67
2023-08-18T03:54:01.031Z,9.33
2023-08-18T03:56:47.930Z,12.63
2023-08-18T03:59:34.708Z,16.57
2023-08-18T04:02:21.503Z,11.70
2023-08-18T04:05:08.534Z,18.43
2023-08-18T04:07:55.661Z,14.80
2023-08-18T04:10:43.532Z,19.93
2023-08-18T04:13:30.337Z,16.47
2023-08-18T04:16:18.062Z,20.93
2023-08-18T04:19:05.636Z,16.03
2023-08-18T04:21:52.056Z,17.37
2023-08-18T04:24:38.833Z,19.17
2023-08-18T04:27:26.750Z,18.73
2023-08-18T04:30:14.710Z,20.70
2023-08-18T04:33:01.464Z,28.47
2023-08-18T04:35:48.047Z,21.97
2023-08-18T04:38:34.762Z,20.33
2023-08-18T04:41:21.341Z,24.83
2023-08-18T04:44:09.423Z,19.43
2023-08-18T04:46:56.506Z,22.30
2023-08-18T04:49:43.341Z,28.77
2023-08-18T04:52:30.218Z,28.50
2023-08-18T04:55:17.084Z,21.27
2023-08-18T04:58:04.793Z,28.77
2023-08-18T05:00:54.772Z,24.67
2023-08-18T05:03:41.625Z,28.03
2023-08-18T05:06:28.693Z,22.33
2023-08-18T05:09:15.375Z,27.83
2023-08-18T05:12:03.053Z,25.27
2023-08-18T05:14:49.708Z,23.33
2023-08-18T05:17:37.678Z,23.53
2023-08-18T05:20:24.451Z,22.80
2023-08-18T05:23:12.044Z,29.33
2023-08-18T05:26:00.696Z,21.47
2023-08-18T05:28:48.711Z,22.67
2023-08-18T05:31:37.950Z,23.90
2023-08-18T05:34:26.585Z,22.13
2023-08-18T05:37:13.232Z,24.87
2023-08-18T05:39:59.602Z,18.90
2023-08-18T05:42:46.263Z,20.33
2023-08-18T05:45:32.856Z,16.60
2023-08-18T05:48:19.377Z,18.80
2023-08-18T05:51:07.512Z,22.33
2023-08-18T05:53:54.126Z,21.50
2023-08-18T05:56:40.648Z,24.00
2023-08-18T05:59:27.210Z,20.90
2023-08-18T06:02:13.916Z,23.70
2023-08-18T06:05:00.558Z,23.53
2023-08-18T06:07:48.548Z,25.97
2023-08-18T06:10:35.495Z,25.57
2023-08-18T06:13:22.033Z,35.03
2023-08-18T06:16:08.886Z,30.60
2023-08-18T06:18:55.399Z,29.03
2023-08-18T06:21:42.055Z,34.80
2023-08-18T06:24:29.866Z,34.43
2023-08-18T06:27:16.700Z,36.77
2023-08-18T06:30:03.512Z,32.90
2023-08-18T06:32:50.237Z,35.90
2023-08-18T06:35:37.255Z,41.03
2023-08-18T06:38:23.727Z,40.70
2023-08-18T06:41:11.925Z,41.53
2023-08-18T06:43:58.766Z,36.57
2023-08-18T06:46:45.419Z,42.07
2023-08-18T06:49:32.016Z,45.93
2023-08-18T06:52:18.665Z,46.53
2023-08-18T06:55:06.367Z,48.47
2023-08-18T06:57:55.393Z,39.23
2023-08-18T07:00:42.266Z,41.30
2023-08-18T07:03:28.950Z,46.83
2023-08-18T07:06:16.136Z,42.80
2023-08-18T07:09:03.809Z,40.40
2023-08-18T07:11:50.834Z,39.53
2023-08-18T07:14:38.933Z,38.33
2023-08-18T07:17:25.707Z,37.40
2023-08-18T07:20:13.930Z,37.07
2023-08-18T07:23:00.726Z,39.87
2023-08-18T07:25:47.261Z,32.47
2023-08-18T07:28:33.850Z,35.20
2023-08-18T07:31:21.905Z,40.50
2023-08-18T07:34:08.807Z,39.27
2023-08-18T07:36:55.678Z,33.40
2023-08-18T07:39:42.654Z,31.77
2023-08-18T07:42:29.908Z,30.57
2023-08-18T07:45:17.163Z,31.57
2023-08-18T07:48:05.662Z,42.70
2023-08-18T07:50:52.390Z,33.40
2023-08-18T07:53:38.986Z,29.93
2023-08-18T07:56:26.364Z,29.43
2023-08-18T07:59:13.294Z,27.00
2023-08-18T08:02:00.248Z,30.43
2023-08-18T08:04:48.523Z,28.03
2023-08-18T08:07:35.245Z,28.03
2023-08-18T08:10:22.198Z,28.53
2023-08-18T08:13:09.039Z,28.43
2023-08-18T08:15:55.703Z,26.47
2023-08-18T08:18:42.335Z,27.43
2023-08-18T08:21:30.288Z,21.17
2023-08-18T08:24:17.140Z,26.20
2023-08-18T08:27:03.863Z,22.30
2023-08-18T08:29:52.999Z,23.10
2023-08-18T08:32:39.627Z,24.17
2023-08-18T08:35:28.563Z,21.20
2023-08-18T08:38:18.146Z,22.57
2023-08-18T08:41:04.783Z,23.13
2023-08-18T08:43:51.365Z,21.20
2023-08-18T08:46:39.236Z,21.50
2023-08-18T08:49:29.381Z,23.03
2023-08-18T08:52:17.370Z,19.97
2023-08-18T08:55:07.654Z,17.23
2023-08-18T08:57:54.634Z,19.63
2023-08-18T09:00:41.414Z,17.90
2023-08-18T09:03:29.540Z,16.20
2023-08-18T09:06:16.287Z,17.73
2023-08-18T09:09:03.596Z,17.30
2023-08-18T09:11:52.149Z,16.13
2023-08-18T09:14:40.914Z,15.37
2023-08-18T09:17:32.903Z,14.17
2023-08-18T09:20:20.963Z,16.33
2023-08-18T09:23:07.855Z,14.33
2023-08-18T09:25:54.730Z,14.47
2023-08-18T09:28:43.001Z,15.07
2023-08-18T09:31:30.573Z,13.00
2023-08-18T09:34:24.477Z,13.43
2023-08-18T09:37:11.562Z,13.33
2023-08-18T09:39:58.417Z,16.10
2023-08-18T09:42:44.897Z,13.73
2023-08-18T09:45:33.965Z,13.50
2023-08-18T09:48:23.292Z,12.87
2023-08-18T09:51:12.010Z,14.07
2023-08-18T09:54:01.509Z,11.43
2023-08-18T09:56:50.751Z,14.87
2023-08-18T09:59:43.529Z,11.77
2023-08-18T10:02:37.701Z,11.87
2023-08-18T10:05:25.582Z,11.43
2023-08-18T10:08:12.756Z,16.23
2023-08-18T10:10:59.686Z,16.53
2023-08-18T10:13:47.778Z,13.10
2023-08-18T10:16:35.997Z,17.07
2023-08-18T10:19:49.301Z,11.80
2023-08-18T10:22:37.175Z,12.33
2023-08-18T10:25:29.359Z,10.77
2023-08-18T10:28:20.297Z,12.77
2023-08-18T10:31:10.568Z,10.20
2023-08-18T10:34:02.179Z,13.07
2023-08-18T10:36:51.536Z,12.17
2023-08-18T10:39:41.744Z,11.30
2023-08-18T10:42:30.097Z,10.83
2023-08-18T10:45:28.894Z,11.53
2023-08-18T10:48:15.827Z,10.97
2023-08-18T10:51:02.663Z,13.60
2023-08-18T10:53:52.073Z,10.50
2023-08-18T10:56:38.855Z,14.77
2023-08-18T10:59:25.578Z,11.10
2023-08-18T11:02:12.244Z,11.13
2023-08-18T11:04:59.070Z,12.00
2023-08-18T11:07:46.218Z,13.93
2023-08-18T11:10:34.980Z,14.27
2023-08-18T11:13:26.452Z,12.20
2023-08-18T11:16:13.424Z,13.37
2023-08-18T11:19:00.026Z,12.73
2023-08-18T11:21:46.757Z,10.97
2023-08-18T11:24:33.347Z,13.50
2023-08-18T11:27:21.626Z,13.20
2023-08-18T11:30:11.577Z,10.57
2023-08-18T11:32:58.515Z,11.00
2023-08-18T11:35:45.889Z,11.00
2023-08-18T11:38:32.903Z,11.47
2023-08-18T11:41:19.663Z,13.05
2023-08-18T11:44:09.182Z,11.85
2023-08-18T11:46:55.889Z,12.07
2023-08-18T11:49:42.511Z,12.15
2023-08-18T11:52:42.169Z,10.77
2023-08-18T11:55:34.014Z,11.50
2023-08-18T11:58:24.710Z,11.95
2023-08-18T12:01:12.907Z,10.43
2023-08-18T12:03:59.626Z,11.15
2023-08-18T12:06:46.138Z,12.00
2023-08-18T12:09:32.696Z,11.55
2023-08-18T12:12:19.367Z,9.95
2023-08-18T12:15:06.900Z,10.10
2023-08-18T12:17:55.396Z,10.40
2023-08-18T12:20:43.288Z,10.18
2023-08-18T12:23:29.984Z,13.43
2023-08-18T12:26:18.749Z,11.77
2023-08-18T12:29:05.919Z,9.95
2023-08-18T12:31:52.429Z,9.57
2023-08-18T12:34:40.383Z,11.13
2023-08-18T12:37:29.769Z,9.07
2023-08-18T12:40:16.937Z,7.88
2023-08-18T12:43:03.928Z,7.22
2023-08-18T12:45:50.934Z,7.22
2023-08-18T12:48:37.859Z,7.35
2023-08-18T12:51:25.951Z,8.02
2023-08-18T12:54:12.546Z,8.05
2023-08-18T12:56:59.126Z,8.00
2023-08-18T12:59:45.787Z,7.32
2023-08-18T13:02:32.691Z,7.65
2023-08-18T13:05:19.634Z,8.80
2023-08-18T13:08:08.330Z,8.40
2023-08-18T13:10:55.117Z,6.82
2023-08-18T13:13:41.869Z,7.47
2023-08-18T13:16:33.523Z,7.30
2023-08-18T13:19:21.632Z,6.72
2023-08-18T13:22:08.483Z,6.45
2023-08-18T13:24:56.798Z,7.13
2023-08-18T13:27:44.491Z,6.60
2023-08-18T13:30:31.622Z,9.15
2023-08-18T13:33:18.520Z,8.50
2023-08-18T13:36:05.686Z,8.60
2023-08-18T13:38:52.409Z,6.68
2023-08-18T13:41:40.567Z,6.25
2023-08-18T13:44:27.267Z,7.55
2023-08-18T13:47:13.787Z,6.28
2023-08-18T13:50:00.450Z,6.72
2023-08-18T13:52:47.105Z,6.40
2023-08-18T13:55:33.658Z,6.53
2023-08-18T13:58:22.014Z,6.50
2023-08-18T14:01:08.937Z,6.82
2023-08-18T14:03:55.853Z,6.53
2023-08-18T14:06:44.290Z,6.80
2023-08-18T14:09:33.694Z,6.07
2023-08-18T14:12:20.670Z,6.75
2023-08-18T14:15:09.703Z,6.75
2023-08-18T14:17:56.406Z,7.95
2023-08-18T14:20:42.950Z,6.63
2023-08-18T14:23:29.974Z,6.43
2023-08-18T14:26:16.455Z,6.70
2023-08-18T14:29:03.617Z,7.45
2023-08-18T14:31:51.592Z,6.68
2023-08-18T14:34:38.765Z,7.85
2023-08-18T14:37:26.543Z,7.07
2023-08-18T14:40:13.677Z,7.13
2023-08-18T14:43:14.696Z,6.78
2023-08-18T14:46:05.535Z,7.50
2023-08-18T14:48:53.706Z,6.47
2023-08-18T14:51:40.558Z,6.60
2023-08-18T14:54:27.226Z,6.70
2023-08-18T14:57:15.019Z,6.22
2023-08-18T15:00:02.271Z,6.35
2023-08-18T15:02:48.955Z,7.28
2023-08-18T15:05:37.373Z,6.38
2023-08-18T15:08:23.960Z,6.55
2023-08-18T15:11:10.673Z,6.07
2023-08-18T15:13:57.299Z,6.63
2023-08-18T15:16:44.100Z,6.85
2023-08-18T15:19:31.211Z,6.88
2023-08-18T15:22:19.413Z,6.47
2023-08-18T15:25:07.990Z,6.97
2023-08-18T15:27:55.192Z,6.90
2023-08-18T15:30:42.237Z,6.82
2023-08-18T15:33:28.829Z,9.07
2023-08-18T15:36:15.527Z,6.53
2023-08-18T15:39:05.544Z,9.57
2023-08-18T15:41:52.308Z,7.10
2023-08-18T15:44:38.661Z,8.35
2023-08-18T15:47:25.354Z,8.25
2023-08-18T15:50:12.580Z,7.05
2023-08-18T15:52:59.372Z,7.13
2023-08-18T15:55:48.784Z,5.80
2023-08-18T15:58:36.679Z,6.60
2023-08-18T16:01:24.036Z,6.30
2023-08-18T16:04:10.640Z,7.50
2023-08-18T16:06:57.268Z,6.78
2023-08-18T16:09:44.111Z,6.78
2023-08-18T16:12:32.010Z,7.20
2023-08-18T16:18:09.583Z,6.80
2023-08-18T16:20:57.290Z,6.25
2023-08-18T16:23:44.179Z,8.05
2023-08-18T16:26:30.918Z,6.07
2023-08-18T16:29:19.009Z,5.90
2023-08-18T16:32:06.424Z,6.18
2023-08-18T16:34:55.335Z,5.90
2023-08-18T16:37:46.707Z,5.88
2023-08-18T16:40:36.246Z,6.30
2023-08-18T16:43:22.780Z,6.68
2023-08-18T16:46:10.767Z,5.95
2023-08-18T16:48:57.565Z,5.75
2023-08-18T16:51:44.110Z,6.03
2023-08-18T16:54:31.424Z,5.45
2023-08-18T16:57:20.064Z,7.10
2023-08-18T17:00:11.192Z,5.20
2023-08-18T17:02:59.229Z,5.63
2023-08-18T17:05:47.421Z,6.22
2023-08-18T17:08:34.214Z,5.18
2023-08-18T17:11:20.647Z,6.43
2023-08-18T17:14:07.276Z,8.52
2023-08-18T17:16:53.822Z,5.60
2023-08-18T17:19:41.648Z,5.90
2023-08-18T17:22:28.993Z,4.97
2023-08-18T17:25:15.830Z,5.68
2023-08-18T17:28:03.007Z,5.93
2023-08-18T17:30:50.098Z,5.55
2023-08-18T17:33:38.091Z,10.07
2023-08-18T17:36:26.296Z,7.90
2023-08-18T17:39:12.985Z,9.52
2023-08-18T17:42:01.061Z,9.23
2023-08-18T17:44:47.705Z,11.32
2023-08-18T17:47:34.545Z,11.73
2023-08-18T17:50:22.075Z,8.77
2023-08-18T17:53:10.287Z,9.02
2023-08-18T17:55:57.066Z,7.82
2023-08-18T17:58:43.663Z,9.68
2023-08-18T18:01:31.641Z,12.05
2023-08-18T18:04:18.825Z,9.25
2023-08-18T18:07:06.419Z,12.43
2023-08-18T18:09:54.459Z,9.45
2023-08-18T18:12:41.470Z,16.77
2023-08-18T18:15:28.192Z,9.75
2023-08-18T18:18:16.043Z,9.65
2023-08-18T18:21:03.204Z,11.23
2023-08-18T18:23:49.720Z,8.50
2023-08-18T18:26:37.770Z,8.98
2023-08-18T18:29:24.787Z,11.95
2023-08-18T18:32:11.906Z,8.13
2023-08-18T18:34:58.428Z,10.55
2023-08-18T18:37:45.012Z,10.00
2023-08-18T18:40:31.811Z,12.57
2023-08-18T18:43:19.563Z,11.23
2023-08-18T18:46:06.317Z,9.43
2023-08-18T18:48:54.775Z,8.73
2023-08-18T18:51:41.624Z,10.52
2023-08-18T18:54:28.280Z,10.93
2023-08-18T18:57:15.040Z,9.18
2023-08-18T19:00:03.864Z,8.25
2023-08-18T19:02:50.548Z,8.95
2023-08-18T19:05:40.922Z,13.52
2023-08-18T19:08:27.655Z,12.48
2023-08-18T19:11:16.318Z,9.77
2023-08-18T19:14:04.011Z,9.35
2023-08-18T19:16:52.243Z,10.30
2023-08-18T19:19:39.117Z,14.07
2023-08-18T19:22:25.582Z,8.75
2023-08-18T19:25:12.282Z,9.70
2023-08-18T19:27:59.302Z,8.70
2023-08-18T19:30:46.270Z,8.93
2023-08-18T19:33:34.500Z,9.27
2023-08-18T19:36:21.548Z,12.10
2023-08-18T19:39:08.292Z,11.55
2023-08-18T19:41:54.904Z,9.60
2023-08-18T19:44:41.601Z,11.35
2023-08-18T19:47:29.459Z,9.18
2023-08-18T19:50:17.504Z,9.25
2023-08-18T19:53:04.809Z,10.43
2023-08-18T19:55:52.386Z,11.63
2023-08-18T19:58:39.183Z,9.15
2023-08-18T20:01:25.821Z,9.52
2023-08-18T20:04:12.771Z,12.48
2023-08-18T20:07:02.628Z,11.77
2023-08-18T20:09:49.844Z,9.68
2023-08-18T20:12:36.630Z,11.45
2023-08-18T20:15:25.032Z,10.45
2023-08-18T20:18:11.621Z,9.65
2023-08-18T20:20:58.151Z,10.27
2023-08-18T20:23:46.049Z,10.02
2023-08-18T20:26:33.047Z,11.02
2023-08-18T20:29:19.549Z,13.27
2023-08-18T20:32:07.150Z,10.80
2023-08-18T20:34:54.215Z,9.68
2023-08-18T20:37:43.144Z,9.95
2023-08-18T20:40:31.320Z,9.73
2023-08-18T20:43:19.409Z,8.82
2023-08-18T20:46:07.743Z,9.50
2023-08-18T20:48:54.611Z,10.38
2023-08-18T20:51:41.136Z,10.10
2023-08-18T20:54:27.722Z,9.35
2023-08-18T20:57:15.641Z,10.25
2023-08-18T21:00:02.538Z,10.15
2023-08-18T21:02:49.486Z,9.60
2023-08-18T21:05:36.433Z,10.75
2023-08-18T21:08:23.641Z,10.57
2023-08-18T21:11:10.597Z,10.52
2023-08-18T21:13:58.608Z,11.05
2023-08-18T21:16:45.197Z,9.75
2023-08-18T21:19:31.773Z,10.88
2023-08-18T21:22:18.307Z,11.95
2023-08-18T21:25:05.187Z,10.43
2023-08-18T21:27:51.715Z,12.63
2023-08-18T21:30:39.695Z,10.18
2023-08-18T21:33:26.907Z,10.55
2023-08-18T21:36:13.585Z,11.05
2023-08-18T21:39:05.959Z,10.32
2023-08-18T21:41:52.412Z,10.68
2023-08-18T21:44:39.064Z,11.43
2023-08-18T21:47:27.003Z,10.48
2023-08-18T21:50:14.343Z,10.18
2023-08-18T21:53:01.070Z,10.15
2023-08-18T21:55:47.433Z,10.98
2023-08-18T21:58:34.141Z,12.93
2023-08-18T22:01:21.247Z,14.48
2023-08-18T22:04:09.163Z,10.80
2023-08-18T22:06:55.722Z,13.95
2023-08-18T22:09:42.406Z,11.97
2023-08-18T22:12:29.260Z,12.23
2023-08-18T22:15:16.233Z,11.65
2023-08-18T22:18:04.311Z,11.20
2023-08-18T22:20:53.022Z,11.82
2023-08-18T22:23:39.853Z,10.80
2023-08-18T22:26:26.578Z,11.00
2023-08-18T22:29:13.175Z,11.75
2023-08-18T22:31:59.675Z,11.73
2023-08-18T22:34:46.092Z,11.23
2023-08-18T22:37:34.117Z,10.80
2023-08-18T22:40:20.892Z,11.37
2023-08-18T22:43:07.441Z,11.88
2023-08-18T22:45:54.195Z,11.98
2023-08-18T22:48:41.065Z,11.63
2023-08-18T22:51:27.625Z,11.47
2023-08-18T22:54:15.676Z,10.67
2023-08-18T22:57:03.037Z,14.63
2023-08-18T22:59:49.622Z,11.00
2023-08-18T23:02:36.188Z,11.47
2023-08-18T23:05:22.896Z,13.10
2023-08-18T23:08:09.358Z,11.30
2023-08-18T23:11:03.216Z,11.70
2023-08-18T23:13:49.555Z,15.63
2023-08-18T23:16:36.087Z,12.67
2023-08-18T23:19:23.033Z,12.53
2023-08-18T23:22:09.605Z,11.77
2023-08-18T23:24:56.648Z,11.13
2023-08-18T23:27:44.979Z,14.33
2023-08-18T23:30:31.767Z,12.53
2023-08-18T23:33:18.443Z,12.97
2023-08-18T23:36:05.819Z,12.20
2023-08-18T23:38:52.312Z,12.60
2023-08-18T23:41:38.786Z,11.37
2023-08-18T23:44:26.801Z,12.30
2023-08-18T23:47:13.706Z,12.43
2023-08-18T23:50:00.362Z,14.30
2023-08-18T23:52:46.804Z,12.20
2023-08-18T23:55:33.309Z,11.33
2023-08-18T23:58:19.781Z,12.57
